ENKB/KSU METAR and TAF weather

Enter ICAO airport designator
Station Type Date Time Source
ENKB METAR 2019/10/16 19:20 UTC NOAA

ENKB 161920Z 10005KT 060V160 9999 -RA BKN033 08/06 Q1005 RMK WIND 745FT 14014KT


Station Type Date Time Source
ENKB Decoded METAR 2019/10/16 19:20 UTC NOAA

Kristiansund / Kvernberget, Norway (ENKB) 63-07N 007-50E 62M
Oct 16, 2019 - 03:20 PM EDT / 2019.10.16 1920 UTC
Wind: from the E (100 degrees) at 6 MPH (5 KT) (direction variable):0
Visibility: greater than 7 mile(s):0
Sky conditions: mostly cloudy
Weather: light rain
Temperature: 46 F (8 C)
Dew Point: 42 F (6 C)
Relative Humidity: 87%
Pressure (altimeter): 29.68 in. Hg (1005 hPa)
ob: ENKB 161920Z 10005KT 060V160 9999 -RA BKN033 08/06 Q1005 RMK WIND 745FT 14014KT
cycle: 19

Station Type Date Time Source
ENKB TAF 2010/02/05 07:50 UTC NOAA

METAR ENKB 050750Z 15011KT 110V200 9999 SCT055 BKN070 03/M05 Q1007

Example: see airport list